Time;durP1;ratioP1;P1;durP2;ratioP2;P2;SDS_P1;SDS_P2;PMS_P1;PMS_P2;Temp;Humidity;BMP_temperature;BMP_pressure;BME280_temperature;BME280_humidity;BME280_pressure;Samples;Min_cycle;Max_cycle;Signal;HPM_P1;HPM_P2
2023/06/23 00:00:14;;;;;;;15.50;12.35;;;18.10;99.90;;;;;;5072083;28;20797;-74
2023/06/23 00:02:42;;;;;;;19.27;12.52;;;18.10;99.90;;;;;;5070575;28;20419;-73
2023/06/23 00:05:09;;;;;;;18.23;12.60;;;18.10;99.90;;;;;;5066928;28;20927;-74
2023/06/23 00:07:36;;;;;;;16.15;12.43;;;;;;;;;;5072260;28;20438;-74
2023/06/23 00:10:05;;;;;;;16.27;13.00;;;;;;;;;;5054806;28;20939;-73
2023/06/23 00:12:32;;;;;;;15.80;12.65;;;18.00;99.90;;;;;;5067665;28;20536;-73
2023/06/23 00:14:58;;;;;;;17.08;13.60;;;;;;;;;;5071785;28;20439;-73
2023/06/23 00:17:24;;;;;;;16.48;13.18;;;;;;;;;;5070966;28;20420;-74
2023/06/23 00:19:50;;;;;;;16.52;13.52;;;17.90;99.90;;;;;;5065371;28;20427;-73
2023/06/23 00:22:16;;;;;;;19.20;13.80;;;17.70;99.90;;;;;;5055270;28;20420;-73
2023/06/23 00:24:43;;;;;;;20.02;14.93;;;18.00;99.90;;;;;;5052145;28;20428;-73
2023/06/23 00:27:09;;;;;;;19.17;15.07;;;18.00;99.90;;;;;;5071261;28;20428;-74
2023/06/23 00:29:34;;;;;;;18.92;14.65;;;17.90;99.90;;;;;;5062537;28;20431;-73
2023/06/23 00:32:02;;;;;;;18.23;14.15;;;17.80;99.90;;;;;;5070838;28;20419;-73
2023/06/23 00:34:28;;;;;;;20.88;15.05;;;17.80;99.90;;;;;;5052124;28;20459;-73
2023/06/23 00:36:54;;;;;;;19.50;14.27;;;;;;;;;;5070941;28;20444;-73
2023/06/23 00:39:20;;;;;;;18.70;14.80;;;17.80;99.90;;;;;;5071950;28;20403;-73
2023/06/23 00:41:46;;;;;;;21.40;14.77;;;17.60;99.90;;;;;;5052288;28;20939;-73
2023/06/23 00:44:11;;;;;;;18.42;14.23;;;17.60;99.90;;;;;;5053462;28;20427;-74
2023/06/23 00:46:37;;;;;;;18.00;13.73;;;17.80;99.90;;;;;;5052184;28;20422;-74
2023/06/23 00:49:04;;;;;;;19.20;14.03;;;17.90;99.90;;;;;;5054072;28;20516;-74
2023/06/23 00:51:31;;;;;;;19.70;14.30;;;17.60;99.90;;;;;;5045941;28;20495;-74
2023/06/23 00:53:58;;;;;;;20.85;14.50;;;17.60;99.90;;;;;;5070190;28;20425;-73
2023/06/23 00:56:24;;;;;;;18.55;14.63;;;;;;;;;;5070464;28;20435;-73
2023/06/23 00:58:50;;;;;;;18.08;14.82;;;17.70;99.90;;;;;;5053189;28;20775;-72
2023/06/23 01:01:16;;;;;;;21.30;15.15;;;17.80;99.90;;;;;;5069203;28;20986;-73
2023/06/23 01:03:43;;;;;;;20.00;15.73;;;;;;;;;;5069393;28;20494;-73
2023/06/23 01:06:24;;;;;;;20.90;15.38;;;;;;;;;;5070610;28;20419;-73
2023/06/23 01:09:01;;;;;;;21.73;16.25;;;17.40;99.90;;;;;;5064480;28;20485;-73
2023/06/23 01:11:43;;;;;;;21.13;15.75;;;17.50;99.90;;;;;;5053137;28;20477;-73
2023/06/23 01:14:22;;;;;;;19.80;15.07;;;17.50;99.90;;;;;;5068108;28;20449;-73
2023/06/23 01:16:56;;;;;;;18.60;15.15;;;17.50;99.90;;;;;;5066734;28;20420;-73
2023/06/23 01:19:54;;;;;;;21.10;15.05;;;17.50;99.90;;;;;;5055125;28;20508;-73
2023/06/23 01:23:17;;;;;;;18.15;15.27;;;17.50;99.90;;;;;;5060232;28;20503;-73
2023/06/23 01:26:29;;;;;;;22.38;14.77;;;17.70;99.90;;;;;;4987561;28;20436;-74
2023/06/23 01:29:00;;;;;;;18.80;14.48;;;17.50;99.90;;;;;;4942398;29;20434;-73
2023/06/23 01:31:56;;;;;;;21.63;14.88;;;17.50;99.90;;;;;;5039594;28;20434;-73
2023/06/23 01:34:28;;;;;;;18.35;13.88;;;17.50;99.90;;;;;;5060034;28;20810;-73
2023/06/23 01:37:05;;;;;;;19.77;14.43;;;17.40;99.90;;;;;;5059708;28;20823;-73
2023/06/23 01:39:34;;;;;;;20.67;14.93;;;17.50;99.90;;;;;;5050725;28;20467;-73
2023/06/23 01:42:04;;;;;;;19.95;14.50;;;17.40;99.90;;;;;;5058747;28;21027;-73
2023/06/23 01:44:32;;;;;;;19.75;14.75;;;;;;;;;;5066177;28;20415;-73
2023/06/23 01:47:02;;;;;;;23.55;15.23;;;17.40;99.90;;;;;;5066677;28;20415;-74
2023/06/23 01:49:31;;;;;;;18.58;14.18;;;17.40;99.90;;;;;;5071010;28;20427;-74
2023/06/23 01:52:00;;;;;;;18.75;14.93;;;17.50;99.90;;;;;;5067980;28;20422;-73
2023/06/23 01:54:27;;;;;;;18.30;14.38;;;17.30;99.90;;;;;;5069418;28;20811;-74
2023/06/23 01:56:56;;;;;;;21.63;15.50;;;17.40;99.90;;;;;;5068285;28;20905;-74
2023/06/23 01:59:23;;;;;;;20.48;14.73;;;17.30;99.90;;;;;;5070581;28;20403;-74
2023/06/23 02:01:51;;;;;;;18.73;14.70;;;17.20;99.90;;;;;;5069465;28;20477;-73
2023/06/23 02:04:18;;;;;;;18.67;15.13;;;17.50;99.90;;;;;;5043316;28;20423;-74
2023/06/23 02:06:46;;;;;;;20.98;15.05;;;17.20;99.90;;;;;;5070898;28;20453;-74
2023/06/23 02:09:17;;;;;;;20.60;14.80;;;17.30;99.90;;;;;;5070746;28;20809;-73
2023/06/23 02:11:44;;;;;;;18.83;14.95;;;;;;;;;;5068295;28;20420;-74
2023/06/23 02:14:13;;;;;;;19.50;14.25;;;17.50;99.90;;;;;;5066303;28;20428;-74
2023/06/23 02:16:41;;;;;;;18.85;14.55;;;17.10;99.90;;;;;;5060925;28;20429;-73
2023/06/23 02:19:08;;;;;;;20.20;14.32;;;17.20;99.90;;;;;;5067862;28;20775;-73
2023/06/23 02:21:35;;;;;;;19.38;14.68;;;;;;;;;;5052994;28;20423;-73
2023/06/23 02:24:05;;;;;;;20.05;15.18;;;17.10;99.90;;;;;;5068140;28;20411;-74
2023/06/23 02:26:34;;;;;;;18.80;14.35;;;17.20;99.90;;;;;;5066764;28;20423;-73
2023/06/23 02:29:01;;;;;;;20.00;14.70;;;17.20;99.90;;;;;;5051140;28;20435;-74
2023/06/23 02:31:27;;;;;;;19.83;14.05;;;17.30;99.90;;;;;;5068680;28;20426;-74
2023/06/23 02:33:54;;;;;;;18.00;14.10;;;;;;;;;;5067743;28;20798;-74
2023/06/23 02:36:23;;;;;;;18.48;13.95;;;17.10;99.90;;;;;;5065839;28;20507;-74
2023/06/23 02:38:49;;;;;;;18.20;13.20;;;17.10;99.90;;;;;;5068867;28;20435;-73
2023/06/23 02:41:17;;;;;;;17.00;13.30;;;17.10;99.90;;;;;;5069190;28;20489;-74
2023/06/23 02:43:55;;;;;;;18.00;13.30;;;17.20;99.90;;;;;;5068154;28;20481;-75
2023/06/23 02:46:24;;;;;;;19.03;13.07;;;17.00;99.90;;;;;;5055545;28;20396;-74
2023/06/23 02:48:52;;;;;;;18.00;12.48;;;16.90;99.90;;;;;;5072685;28;20821;-74
2023/06/23 02:51:21;;;;;;;16.63;13.07;;;16.80;99.90;;;;;;5052896;28;20413;-74
2023/06/23 02:53:56;;;;;;;17.95;13.18;;;17.00;99.90;;;;;;5065507;28;20418;-74
2023/06/23 02:56:25;;;;;;;19.90;13.13;;;17.00;99.90;;;;;;5072030;28;20431;-74
2023/06/23 02:58:57;;;;;;;17.25;12.98;;;16.90;99.90;;;;;;5072411;28;20502;-74
2023/06/23 03:01:26;;;;;;;18.33;13.48;;;16.80;99.90;;;;;;5069817;28;21015;-74
2023/06/23 03:03:53;;;;;;;18.05;13.02;;;16.80;99.90;;;;;;5053982;28;20428;-74
2023/06/23 03:06:22;;;;;;;18.35;12.90;;;16.80;99.90;;;;;;5070569;28;20426;-74
2023/06/23 03:08:48;;;;;;;17.45;13.15;;;;;;;;;;5054884;28;20415;-74
2023/06/23 03:11:21;;;;;;;16.75;12.32;;;;;;;;;;5070528;28;20423;-74
2023/06/23 03:13:47;;;;;;;15.52;12.20;;;16.60;99.90;;;;;;5071321;28;20419;-75
2023/06/23 03:16:23;;;;;;;17.33;12.18;;;16.60;99.90;;;;;;5057279;28;20423;-74
2023/06/23 03:19:02;;;;;;;17.02;12.32;;;16.90;99.90;;;;;;5068824;28;20821;-74
2023/06/23 03:21:28;;;;;;;17.55;12.75;;;16.60;99.90;;;;;;5067778;28;20429;-74
2023/06/23 03:23:57;;;;;;;14.45;11.48;;;16.90;99.90;;;;;;5072668;28;20420;-74
2023/06/23 03:26:24;;;;;;;19.17;12.25;;;;;;;;;;5072780;28;20415;-74
2023/06/23 03:28:54;;;;;;;17.00;11.45;;;16.80;99.90;;;;;;5066567;28;20482;-73
2023/06/23 03:31:22;;;;;;;16.73;11.90;;;16.50;99.90;;;;;;5054092;28;20957;-73
2023/06/23 03:33:48;;;;;;;16.98;11.88;;;16.60;99.90;;;;;;5044008;28;20426;-73
2023/06/23 03:36:19;;;;;;;17.10;12.57;;;16.50;99.90;;;;;;5073152;28;20970;-73
2023/06/23 03:38:47;;;;;;;18.17;12.43;;;;;;;;;;5063801;28;20446;-74
2023/06/23 03:41:14;;;;;;;15.85;12.70;;;16.50;99.90;;;;;;5072124;28;20951;-73
2023/06/23 03:43:49;;;;;;;19.40;12.52;;;16.40;99.90;;;;;;5073868;28;20445;-74
2023/06/23 03:46:21;;;;;;;16.10;12.77;;;;;;;;;;5073145;28;20447;-74
2023/06/23 03:48:49;;;;;;;17.92;13.00;;;16.30;99.90;;;;;;5068930;28;20424;-74
2023/06/23 03:51:18;;;;;;;20.83;13.37;;;16.30;99.90;;;;;;5061333;28;20460;-74
2023/06/23 03:53:45;;;;;;;19.63;13.27;;;16.30;99.90;;;;;;5072729;28;20419;-74
2023/06/23 03:56:12;;;;;;;17.77;13.30;;;;;;;;;;5071189;28;20431;-74
2023/06/23 03:58:40;;;;;;;17.90;13.18;;;16.00;99.90;;;;;;5071635;28;20411;-75
2023/06/23 04:01:06;;;;;;;18.13;13.53;;;;;;;;;;5038548;28;20423;-75
2023/06/23 04:03:33;;;;;;;19.45;13.45;;;16.10;99.90;;;;;;5067052;28;20653;-74
2023/06/23 04:06:03;;;;;;;19.98;14.43;;;15.90;99.90;;;;;;5071255;28;20415;-74
2023/06/23 04:08:30;;;;;;;17.60;13.93;;;;;;;;;;5066550;28;20417;-75
2023/06/23 04:10:58;;;;;;;18.73;14.23;;;16.10;99.90;;;;;;5070121;28;20514;-74
2023/06/23 04:13:26;;;;;;;16.95;14.00;;;16.20;99.90;;;;;;5052754;28;20502;-74
2023/06/23 04:15:56;;;;;;;20.90;14.88;;;16.10;99.90;;;;;;5072258;28;20444;-74
2023/06/23 04:18:24;;;;;;;20.33;14.60;;;;;;;;;;5067228;28;20435;-75
2023/06/23 04:20:51;;;;;;;20.80;14.77;;;;;;;;;;5070958;28;20911;-73
2023/06/23 04:23:18;;;;;;;18.33;14.57;;;16.10;99.90;;;;;;5069525;28;20415;-74
2023/06/23 04:25:48;;;;;;;18.75;14.77;;;16.00;99.90;;;;;;5071944;28;20457;-75
2023/06/23 04:28:18;;;;;;;21.13;14.73;;;16.20;99.90;;;;;;5070965;28;20499;-75
2023/06/23 04:30:44;;;;;;;19.23;15.10;;;;;;;;;;5052935;28;20423;-74
2023/06/23 04:33:10;;;;;;;20.60;15.27;;;;;;;;;;5065418;28;20493;-74
2023/06/23 04:35:37;;;;;;;19.83;14.48;;;16.00;99.90;;;;;;5049071;28;20420;-75
2023/06/23 04:38:08;;;;;;;22.52;15.52;;;16.10;99.90;;;;;;5052529;28;20472;-75
2023/06/23 04:40:43;;;;;;;21.27;15.50;;;;;;;;;;5061371;28;20425;-75
2023/06/23 04:43:13;;;;;;;19.57;14.63;;;16.00;99.90;;;;;;5068724;28;20779;-75
2023/06/23 04:45:58;;;;;;;19.27;15.25;;;16.40;99.90;;;;;;5071647;28;20533;-75
2023/06/23 04:48:29;;;;;;;20.10;15.40;;;16.00;99.90;;;;;;5070357;28;20419;-75
2023/06/23 04:50:58;;;;;;;20.63;14.85;;;16.10;99.90;;;;;;5069805;28;20430;-74
2023/06/23 04:53:30;;;;;;;21.95;15.23;;;16.10;99.90;;;;;;5052717;28;20860;-74
2023/06/23 04:56:01;;;;;;;18.23;15.13;;;16.30;99.90;;;;;;5071485;28;20560;-75
2023/06/23 04:58:31;;;;;;;20.42;15.35;;;16.20;99.90;;;;;;5053605;28;20420;-75
2023/06/23 05:00:58;;;;;;;22.03;15.90;;;;;;;;;;5070415;28;20434;-75
2023/06/23 05:03:26;;;;;;;21.88;15.60;;;16.60;99.90;;;;;;5065695;28;20420;-76
2023/06/23 05:05:54;;;;;;;20.67;15.75;;;;;;;;;;5071743;28;20400;-74
2023/06/23 05:08:24;;;;;;;20.77;15.37;;;;;;;;;;5068421;28;20491;-74
2023/06/23 05:10:51;;;;;;;20.10;15.70;;;16.50;99.90;;;;;;5070696;28;20767;-74
2023/06/23 05:13:19;;;;;;;19.10;15.35;;;;;;;;;;5070533;28;20459;-74
2023/06/23 05:15:48;;;;;;;19.08;15.02;;;16.60;99.90;;;;;;5065332;28;20556;-75
2023/06/23 05:18:16;;;;;;;21.35;15.32;;;16.40;99.90;;;;;;5070280;28;20420;-74
2023/06/23 05:20:43;;;;;;;18.60;14.20;;;16.40;99.90;;;;;;5066380;28;20446;-74
2023/06/23 05:23:11;;;;;;;19.70;14.38;;;;;;;;;;5046329;28;20806;-74
2023/06/23 05:25:37;;;;;;;17.83;14.20;;;16.50;99.90;;;;;;5068852;28;20759;-74
2023/06/23 05:28:05;;;;;;;20.15;13.95;;;16.70;99.90;;;;;;5070317;28;20416;-74
2023/06/23 05:30:32;;;;;;;20.90;14.43;;;16.60;99.90;;;;;;5068738;28;20465;-75
2023/06/23 05:33:00;;;;;;;19.20;14.27;;;16.60;99.90;;;;;;5070592;28;20423;-75
2023/06/23 05:35:27;;;;;;;18.97;14.30;;;16.50;99.90;;;;;;5069688;28;20451;-73
2023/06/23 05:37:53;;;;;;;19.88;14.23;;;;;;;;;;5050120;28;20431;-75
2023/06/23 05:40:19;;;;;;;18.57;13.90;;;16.70;99.90;;;;;;5065564;28;20407;-75
2023/06/23 05:42:46;;;;;;;18.63;13.80;;;16.70;99.90;;;;;;5061894;28;20434;-75
2023/06/23 05:45:12;;;;;;;21.80;14.27;;;;;;;;;;5053412;28;20426;-75
2023/06/23 05:48:13;;;;;;;16.45;13.88;;;17.00;99.90;;;;;;5052428;28;20407;-75
2023/06/23 05:50:41;;;;;;;19.25;13.80;;;16.90;99.90;;;;;;5057009;28;20404;-74
2023/06/23 05:53:11;;;;;;;19.65;14.18;;;17.30;99.90;;;;;;5045965;28;20434;-75
2023/06/23 05:55:57;;;;;;;16.52;12.95;;;17.40;99.90;;;;;;5052140;28;20992;-75
2023/06/23 05:58:28;;;;;;;18.38;13.05;;;17.50;99.90;;;;;;5063433;28;20419;-75
2023/06/23 06:00:56;;;;;;;15.98;12.32;;;17.60;99.90;;;;;;5069041;28;20419;-75
2023/06/23 06:03:33;;;;;;;15.33;12.00;;;17.90;99.90;;;;;;5061288;28;20458;-75
2023/06/23 06:06:00;;;;;;;16.73;11.98;;;18.00;99.90;;;;;;5069342;28;20451;-75
2023/06/23 06:08:28;;;;;;;15.85;11.43;;;17.90;99.90;;;;;;5052019;28;20447;-74
2023/06/23 06:10:56;;;;;;;15.48;11.13;;;18.10;99.90;;;;;;5069178;28;20419;-76
2023/06/23 06:13:23;;;;;;;12.73;10.98;;;;;;;;;;5051672;28;20427;-76
2023/06/23 06:15:51;;;;;;;16.15;11.07;;;18.40;99.90;;;;;;5062053;28;20421;-74
2023/06/23 06:18:19;;;;;;;14.45;10.55;;;18.40;99.90;;;;;;5069955;28;20425;-75
2023/06/23 06:20:47;;;;;;;14.85;10.43;;;;;;;;;;5070438;28;20429;-75
2023/06/23 06:23:14;;;;;;;13.63;10.48;;;18.50;99.90;;;;;;5068805;28;20497;-75
2023/06/23 06:25:41;;;;;;;13.40;9.80;;;;;;;;;;5057853;28;20468;-75
2023/06/23 06:28:09;;;;;;;11.68;9.05;;;;;;;;;;5072149;28;20438;-75
2023/06/23 06:30:37;;;;;;;13.32;10.00;;;18.90;99.90;;;;;;5072004;28;20430;-75
2023/06/23 06:33:04;;;;;;;13.98;9.13;;;;;;;;;;5064762;28;20425;-76
2023/06/23 06:35:32;;;;;;;14.40;10.10;;;19.10;99.90;;;;;;5065930;28;20417;-75
2023/06/23 06:37:59;;;;;;;12.23;8.00;;;19.30;99.90;;;;;;5054699;28;20467;-75
2023/06/23 06:40:26;;;;;;;11.43;7.90;;;19.30;99.90;;;;;;5068412;28;20470;-75
2023/06/23 06:42:52;;;;;;;11.45;7.70;;;;;;;;;;5074381;28;20419;-75
2023/06/23 06:45:18;;;;;;;9.45;6.90;;;19.60;99.90;;;;;;5064764;28;21138;-75
2023/06/23 06:47:44;;;;;;;9.57;6.68;;;19.70;99.90;;;;;;5073800;28;20926;-75
2023/06/23 06:50:15;;;;;;;9.15;6.78;;;19.70;99.90;;;;;;5070589;28;20449;-76
2023/06/23 06:52:43;;;;;;;9.00;7.00;;;20.10;99.90;;;;;;5071691;28;20845;-74
2023/06/23 06:55:20;;;;;;;10.23;7.75;;;19.90;99.90;;;;;;5072068;28;20490;-75
2023/06/23 06:57:46;;;;;;;7.88;7.00;;;19.90;99.90;;;;;;5056440;28;20434;-71
2023/06/23 07:00:16;;;;;;;13.25;6.30;;;20.00;99.90;;;;;;5071331;28;20423;-75
2023/06/23 07:02:43;;;;;;;7.72;5.95;;;20.30;99.90;;;;;;5070816;28;20438;-75
2023/06/23 07:05:09;;;;;;;8.63;5.93;;;20.20;99.90;;;;;;5070581;28;20483;-75
2023/06/23 07:07:35;;;;;;;10.20;7.10;;;20.40;99.90;;;;;;5070034;28;20420;-75
2023/06/23 07:10:00;;;;;;;7.95;5.45;;;20.80;99.90;;;;;;5070662;28;20466;-75
2023/06/23 07:12:26;;;;;;;7.45;5.00;;;20.50;99.90;;;;;;5071410;28;20896;-74
2023/06/23 07:14:52;;;;;;;6.28;4.38;;;20.70;99.90;;;;;;5071443;28;20453;-74
2023/06/23 07:17:18;;;;;;;6.70;4.57;;;21.10;99.90;;;;;;5064067;28;20438;-74
2023/06/23 07:19:43;;;;;;;10.83;5.33;;;20.90;99.90;;;;;;5066527;28;20434;-76
2023/06/23 07:22:09;;;;;;;8.20;4.87;;;21.00;99.90;;;;;;5053207;28;20422;-73
2023/06/23 07:24:35;;;;;;;7.90;5.00;;;21.10;99.90;;;;;;5066773;28;20423;-74
2023/06/23 07:27:00;;;;;;;7.80;4.60;;;21.10;99.90;;;;;;5068586;28;20431;-74
2023/06/23 07:29:26;;;;;;;6.63;4.30;;;21.30;99.90;;;;;;5067865;28;20424;-75
2023/06/23 07:31:52;;;;;;;6.97;4.47;;;21.30;99.90;;;;;;5051902;28;20416;-74
2023/06/23 07:34:18;;;;;;;6.17;4.40;;;21.10;99.90;;;;;;5050989;28;20477;-75
2023/06/23 07:36:43;;;;;;;7.80;4.60;;;21.40;99.90;;;;;;5066632;28;20442;-75
2023/06/23 07:39:10;;;;;;;6.38;4.30;;;21.50;99.90;;;;;;5069434;28;20818;-74
2023/06/23 07:41:36;;;;;;;8.20;4.32;;;21.80;99.90;;;;;;5053442;28;20822;-74
2023/06/23 07:44:02;;;;;;;6.05;4.60;;;21.60;99.90;;;;;;5071976;28;20473;-74
2023/06/23 07:46:30;;;;;;;6.50;4.38;;;21.70;99.90;;;;;;5049327;28;20419;-74
2023/06/23 07:48:55;;;;;;;6.82;4.28;;;21.70;99.90;;;;;;5060461;28;20508;-75
2023/06/23 07:51:21;;;;;;;5.78;4.32;;;21.90;99.90;;;;;;5042861;28;20512;-74
2023/06/23 07:53:47;;;;;;;6.25;4.28;;;21.90;99.90;;;;;;5052671;28;20423;-75
2023/06/23 07:56:12;;;;;;;6.13;4.77;;;22.20;99.90;;;;;;5068855;28;20435;-75
2023/06/23 07:58:41;;;;;;;6.20;4.50;;;22.20;99.90;;;;;;5064436;28;20460;-75
2023/06/23 08:01:07;;;;;;;7.22;4.25;;;22.20;99.90;;;;;;5066259;28;20500;-75
2023/06/23 08:03:33;;;;;;;8.53;6.03;;;22.20;99.90;;;;;;5047232;28;20510;-75
2023/06/23 08:05:59;;;;;;;7.05;5.68;;;22.30;99.90;;;;;;5052005;28;20412;-76
2023/06/23 08:08:24;;;;;;;9.97;6.67;;;22.40;99.90;;;;;;5063828;28;20465;-76
2023/06/23 08:10:50;;;;;;;7.93;5.93;;;22.50;99.90;;;;;;5045736;28;20426;-75
2023/06/23 08:13:16;;;;;;;9.70;7.07;;;22.50;99.90;;;;;;5049614;28;20419;-75
2023/06/23 08:15:41;;;;;;;9.95;7.03;;;22.60;99.90;;;;;;5066002;28;20430;-75
2023/06/23 08:18:08;;;;;;;8.43;6.93;;;22.50;99.90;;;;;;5066111;28;20421;-75
2023/06/23 08:20:34;;;;;;;8.67;6.60;;;;;;;;;;5065530;28;20490;-76
2023/06/23 08:22:59;;;;;;;7.37;5.10;;;22.60;99.90;;;;;;5065775;28;20416;-76
2023/06/23 08:25:25;;;;;;;8.37;5.40;;;22.60;99.90;;;;;;5065872;28;20943;-75
2023/06/23 08:27:52;;;;;;;8.15;5.88;;;22.70;99.90;;;;;;5062426;28;20420;-75
2023/06/23 08:30:26;;;;;;;8.55;5.45;;;22.40;99.90;;;;;;5064190;28;20420;-76
2023/06/23 08:32:52;;;;;;;6.50;5.07;;;22.70;99.90;;;;;;5070274;28;20480;-75
2023/06/23 08:35:18;;;;;;;6.73;4.80;;;22.70;99.90;;;;;;5066884;28;22279;-76
2023/06/23 08:37:44;;;;;;;7.47;5.47;;;22.70;99.90;;;;;;5068107;28;20463;-75
2023/06/23 08:40:10;;;;;;;6.60;4.93;;;22.80;99.90;;;;;;5052233;28;20403;-75
2023/06/23 08:42:37;;;;;;;5.85;3.67;;;22.80;99.90;;;;;;5034671;28;20444;-76
2023/06/23 08:45:03;;;;;;;6.40;3.70;;;22.90;99.90;;;;;;5071067;28;20447;-78
2023/06/23 08:47:31;;;;;;;5.90;4.20;;;23.00;99.90;;;;;;5052101;28;20416;-77
2023/06/23 08:49:57;;;;;;;7.10;4.30;;;23.00;99.90;;;;;;5052055;28;20421;-78
2023/06/23 08:52:26;;;;;;;6.53;4.28;;;23.10;99.90;;;;;;5067380;28;20422;-79
2023/06/23 08:54:52;;;;;;;5.75;4.07;;;23.10;99.90;;;;;;5049284;28;20421;-78
2023/06/23 08:57:19;;;;;;;5.43;3.83;;;23.30;99.90;;;;;;5055086;28;21128;-79
2023/06/23 08:59:45;;;;;;;6.22;4.03;;;23.30;99.90;;;;;;5052448;28;20425;-78
2023/06/23 09:02:11;;;;;;;7.93;5.00;;;23.30;99.90;;;;;;5052902;28;20447;-78
2023/06/23 09:04:38;;;;;;;7.23;4.40;;;23.60;99.90;;;;;;5054796;28;20419;-78
2023/06/23 09:07:05;;;;;;;4.87;3.60;;;;;;;;;;5068676;28;20430;-78
2023/06/23 09:09:31;;;;;;;4.45;2.70;;;23.50;99.90;;;;;;5053200;28;20922;-78
2023/06/23 09:11:58;;;;;;;5.95;4.20;;;23.50;99.90;;;;;;5071120;28;20459;-78
2023/06/23 09:14:29;;;;;;;7.00;4.80;;;23.40;99.90;;;;;;5053035;28;20415;-79
2023/06/23 09:16:56;;;;;;;10.05;4.25;;;23.40;99.90;;;;;;5063060;28;20427;-79
2023/06/23 09:19:23;;;;;;;4.80;3.65;;;23.60;99.90;;;;;;5071318;28;20593;-78
2023/06/23 09:21:49;;;;;;;5.05;3.72;;;23.50;99.90;;;;;;5053755;28;20423;-78
2023/06/23 09:24:16;;;;;;;6.20;4.43;;;23.80;99.90;;;;;;5034367;28;20419;-79
2023/06/23 09:26:55;;;;;;;8.60;5.10;;;23.80;99.90;;;;;;5034972;28;20402;-79
2023/06/23 09:29:28;;;;;;;8.93;5.68;;;23.70;99.90;;;;;;5065860;28;20419;-79
2023/06/23 09:31:54;;;;;;;7.37;4.97;;;23.80;99.90;;;;;;5047359;28;20415;-77
2023/06/23 09:34:29;;;;;;;6.68;4.50;;;23.90;99.90;;;;;;5068150;28;20510;-78
2023/06/23 09:37:06;;;;;;;4.72;3.28;;;23.90;99.90;;;;;;5063092;28;20469;-79
2023/06/23 09:39:40;;;;;;;6.80;4.10;;;23.90;99.90;;;;;;5066630;28;20958;-78
2023/06/23 09:42:12;;;;;;;6.78;4.20;;;24.10;99.90;;;;;;5041961;28;20417;-77
2023/06/23 09:44:40;;;;;;;5.47;3.70;;;24.20;99.90;;;;;;5063096;28;20423;-78
2023/06/23 09:47:06;;;;;;;6.85;3.40;;;24.10;99.90;;;;;;5071103;28;20400;-78
2023/06/23 09:49:45;;;;;;;7.32;4.63;;;24.30;99.90;;;;;;5049222;28;20418;-77
2023/06/23 09:52:13;;;;;;;5.60;4.13;;;24.40;99.90;;;;;;5068669;28;20450;-77
2023/06/23 09:54:41;;;;;;;7.18;3.97;;;24.60;99.90;;;;;;5048913;28;20447;-77
2023/06/23 09:57:07;;;;;;;8.07;3.63;;;24.40;99.90;;;;;;5067430;28;20428;-77
2023/06/23 09:59:33;;;;;;;6.70;3.65;;;24.30;99.90;;;;;;5063754;28;20420;-77
2023/06/23 10:01:59;;;;;;;5.18;3.40;;;24.70;99.90;;;;;;5046208;28;20430;-78
2023/06/23 10:04:29;;;;;;;8.75;4.22;;;24.90;99.90;;;;;;5055461;28;20685;-78
2023/06/23 10:06:56;;;;;;;7.15;4.38;;;24.60;99.90;;;;;;5063535;28;20872;-79
2023/06/23 10:09:26;;;;;;;7.28;4.60;;;24.30;99.90;;;;;;5089198;22;20465;-78
2023/06/23 10:11:52;;;;;;;7.50;4.25;;;24.20;99.90;;;;;;5067642;28;20944;-78
2023/06/23 10:14:18;;;;;;;7.88;4.50;;;24.30;99.90;;;;;;5077843;28;20776;-78
2023/06/23 10:16:44;;;;;;;5.85;4.35;;;24.20;99.90;;;;;;5085187;28;20479;-78
2023/06/23 10:19:14;;;;;;;6.25;3.97;;;24.10;99.90;;;;;;5071953;28;20503;-79
2023/06/23 10:21:41;;;;;;;5.78;3.90;;;23.90;99.90;;;;;;5087954;28;20917;-78
2023/06/23 10:24:17;;;;;;;5.40;3.47;;;24.10;99.90;;;;;;5085018;28;20428;-78
2023/06/23 10:26:45;;;;;;;6.25;4.10;;;24.40;99.90;;;;;;5098330;28;20436;-79
2023/06/23 10:29:17;;;;;;;8.95;4.28;;;24.60;99.90;;;;;;5084453;28;20422;-76
2023/06/23 10:31:43;;;;;;;6.15;4.25;;;24.70;99.90;;;;;;5090379;28;20398;-77
2023/06/23 10:34:13;;;;;;;4.90;3.80;;;24.70;99.90;;;;;;5070768;28;20778;-77
2023/06/23 10:36:41;;;;;;;6.40;4.10;;;24.60;99.90;;;;;;5087454;28;20448;-77
2023/06/23 10:39:08;;;;;;;4.90;3.72;;;24.50;99.90;;;;;;5088617;28;20433;-77
2023/06/23 10:41:35;;;;;;;6.75;3.80;;;24.80;99.90;;;;;;5088784;28;20516;-77
2023/06/23 10:44:03;;;;;;;7.20;4.05;;;24.60;99.90;;;;;;5063734;28;20415;-77
2023/06/23 10:46:30;;;;;;;6.60;4.22;;;24.80;99.90;;;;;;5086129;28;20423;-76
2023/06/23 10:48:57;;;;;;;8.80;4.90;;;25.20;99.90;;;;;;5086543;28;20466;-77
2023/06/23 10:51:24;;;;;;;5.55;3.95;;;24.70;99.90;;;;;;5086871;28;20877;-76
2023/06/23 10:54:01;;;;;;;6.45;4.25;;;24.80;99.90;;;;;;5068668;28;20417;-76
2023/06/23 10:56:34;;;;;;;6.97;4.65;;;24.70;99.90;;;;;;5072851;28;20914;-77
2023/06/23 10:59:16;;;;;;;7.55;4.63;;;24.30;99.90;;;;;;5088754;28;20464;-76
2023/06/23 11:02:07;;;;;;;6.60;3.75;;;24.10;99.90;;;;;;5089522;28;20969;-76
2023/06/23 11:04:36;;;;;;;6.32;3.53;;;24.20;99.90;;;;;;5076938;28;20418;-77
2023/06/23 11:07:14;;;;;;;8.27;4.10;;;24.70;99.90;;;;;;5085543;28;20929;-77
2023/06/23 11:09:52;;;;;;;7.17;4.10;;;24.50;99.90;;;;;;5069893;28;20426;-77
2023/06/23 11:12:36;;;;;;;6.10;4.18;;;25.20;99.90;;;;;;5072902;28;20425;-77
2023/06/23 11:15:20;;;;;;;6.72;4.45;;;25.20;99.90;;;;;;5089633;28;20433;-75
2023/06/23 11:18:00;;;;;;;7.47;4.65;;;25.20;99.90;;;;;;5086973;28;20426;-77
2023/06/23 11:20:28;;;;;;;5.95;4.35;;;24.90;99.90;;;;;;5081279;28;20418;-77
2023/06/23 11:23:01;;;;;;;6.82;3.45;;;25.10;99.90;;;;;;5065444;28;20419;-76
2023/06/23 11:25:29;;;;;;;4.90;3.20;;;25.00;97.60;;;;;;5103267;28;20925;-78
2023/06/23 11:28:22;;;;;;;5.72;4.20;;;25.00;97.20;;;;;;5087409;28;20984;-76
2023/06/23 11:31:14;;;;;;;5.72;4.05;;;24.80;98.70;;;;;;5087464;28;20422;-77
2023/06/23 11:33:42;;;;;;;5.38;3.90;;;24.70;99.00;;;;;;5087500;28;20418;-80
2023/06/23 11:36:14;;;;;;;5.88;3.65;;;24.90;99.90;;;;;;5073190;28;20484;-77
2023/06/23 11:38:41;;;;;;;5.18;3.35;;;25.10;99.70;;;;;;5090851;28;20414;-77
2023/06/23 11:41:07;;;;;;;6.05;3.80;;;24.80;97.60;;;;;;5087066;28;20444;-77
2023/06/23 11:43:34;;;;;;;6.40;4.00;;;24.90;98.70;;;;;;5089782;28;20410;-76
2023/06/23 11:46:11;;;;;;;5.57;3.80;;;25.00;99.10;;;;;;5064985;28;20507;-78
2023/06/23 11:48:39;;;;;;;6.43;3.70;;;25.10;97.80;;;;;;5107678;28;20417;-78
2023/06/23 11:51:06;;;;;;;6.20;4.13;;;25.00;98.00;;;;;;5091969;28;20418;-77
2023/06/23 11:53:33;;;;;;;5.47;3.22;;;25.10;98.40;;;;;;5072024;28;20418;-78
2023/06/23 11:56:02;;;;;;;5.60;3.35;;;25.20;97.10;;;;;;5071539;28;20417;-78
2023/06/23 11:58:32;;;;;;;5.00;3.30;;;25.30;95.50;;;;;;5077069;28;20416;-77
2023/06/23 12:00:59;;;;;;;4.72;3.35;;;25.50;95.30;;;;;;5067276;28;20503;-77
2023/06/23 12:03:26;;;;;;;4.40;3.13;;;25.40;95.30;;;;;;5082171;28;20787;-77
2023/06/23 12:05:52;;;;;;;5.85;3.28;;;25.70;95.50;;;;;;5080524;28;20597;-77
2023/06/23 12:08:18;;;;;;;5.47;2.90;;;25.30;95.70;;;;;;5077715;28;20419;-77
2023/06/23 12:10:46;;;;;;;5.13;3.00;;;25.50;94.10;;;;;;5091016;28;20402;-77
2023/06/23 12:13:13;;;;;;;5.77;3.00;;;25.30;93.10;;;;;;5089645;28;21906;-76
2023/06/23 12:15:43;;;;;;;4.72;3.13;;;25.60;94.20;;;;;;5086245;28;20415;-77
2023/06/23 12:18:11;;;;;;;4.72;2.97;;;25.60;94.90;;;;;;5108987;27;20921;-76
2023/06/23 12:20:47;;;;;;;4.00;2.80;;;25.80;94.80;;;;;;5089008;28;20448;-77
2023/06/23 12:23:14;;;;;;;4.85;3.13;;;25.70;93.10;;;;;;5105239;27;20812;-78
2023/06/23 12:25:45;;;;;;;4.35;2.90;;;25.80;93.50;;;;;;5072883;28;20424;-79
2023/06/23 12:28:20;;;;;;;6.37;3.10;;;25.90;93.80;;;;;;5089923;28;20442;-78
2023/06/23 12:30:49;;;;;;;4.95;2.83;;;26.00;93.80;;;;;;5072966;28;20415;-78
2023/06/23 12:33:24;;;;;;;4.50;3.20;;;26.20;93.70;;;;;;5088580;28;20441;-78
2023/06/23 12:35:59;;;;;;;5.05;3.00;;;26.00;93.60;;;;;;5089416;28;20956;-78
2023/06/23 12:38:25;;;;;;;6.07;3.08;;;25.90;93.40;;;;;;5085886;28;20482;-77
2023/06/23 12:40:51;;;;;;;4.37;2.87;;;26.10;93.40;;;;;;5079848;28;20475;-76
2023/06/23 12:43:22;;;;;;;5.90;3.03;;;26.10;93.30;;;;;;5087336;28;20774;-77
2023/06/23 12:45:54;;;;;;;5.07;3.22;;;25.60;93.60;;;;;;5080550;28;20414;-77
2023/06/23 12:48:23;;;;;;;4.00;3.00;;;25.60;94.10;;;;;;5068515;28;20832;-77
2023/06/23 12:50:54;;;;;;;6.80;3.20;;;24.40;93.80;;;;;;5088851;28;20421;-78
2023/06/23 12:53:20;;;;;;;4.88;3.17;;;25.80;94.30;;;;;;5082403;28;20434;-78
2023/06/23 12:55:46;;;;;;;5.97;3.53;;;26.10;93.90;;;;;;5071341;28;20428;-78
2023/06/23 12:58:12;;;;;;;5.55;3.42;;;26.10;94.00;;;;;;5068383;28;20425;-80
2023/06/23 13:00:37;;;;;;;5.43;3.30;;;26.00;94.00;;;;;;5061282;28;20944;-81